sensor_id;sensor_type;location;lat;lon;timestamp;P1;durP1;ratioP1;P2;durP2;ratioP2
74124;SDS011;62475;52.192;5.396;2023-05-10T00:01:50;43.10;;;15.95;;
74124;SDS011;62475;52.192;5.396;2023-05-10T00:04:16;45.45;;;15.52;;
74124;SDS011;62475;52.192;5.396;2023-05-10T00:06:41;42.20;;;16.23;;
74124;SDS011;62475;52.192;5.396;2023-05-10T00:09:06;40.25;;;15.98;;
74124;SDS011;62475;52.192;5.396;2023-05-10T00:11:32;49.60;;;17.77;;
74124;SDS011;62475;52.192;5.396;2023-05-10T00:13:57;45.20;;;15.57;;
74124;SDS011;62475;52.192;5.396;2023-05-10T00:16:25;41.17;;;15.60;;
74124;SDS011;62475;52.192;5.396;2023-05-10T00:18:50;31.65;;;14.88;;
74124;SDS011;62475;52.192;5.396;2023-05-10T00:21:16;35.87;;;14.70;;
74124;SDS011;62475;52.192;5.396;2023-05-10T00:23:41;38.25;;;16.38;;
74124;SDS011;62475;52.192;5.396;2023-05-10T00:26:06;36.90;;;14.68;;
74124;SDS011;62475;52.192;5.396;2023-05-10T00:28:32;49.53;;;15.40;;
74124;SDS011;62475;52.192;5.396;2023-05-10T00:30:57;48.25;;;18.42;;
74124;SDS011;62475;52.192;5.396;2023-05-10T00:33:22;42.63;;;16.38;;
74124;SDS011;62475;52.192;5.396;2023-05-10T00:35:48;49.78;;;16.70;;
74124;SDS011;62475;52.192;5.396;2023-05-10T00:38:13;57.72;;;17.65;;
74124;SDS011;62475;52.192;5.396;2023-05-10T00:40:39;56.15;;;18.10;;
74124;SDS011;62475;52.192;5.396;2023-05-10T00:43:04;49.28;;;17.60;;
74124;SDS011;62475;52.192;5.396;2023-05-10T00:45:32;51.03;;;15.45;;
74124;SDS011;62475;52.192;5.396;2023-05-10T00:48:01;60.55;;;18.50;;
74124;SDS011;62475;52.192;5.396;2023-05-10T00:50:27;48.45;;;17.10;;
74124;SDS011;62475;52.192;5.396;2023-05-10T00:52:53;56.85;;;17.95;;
74124;SDS011;62475;52.192;5.396;2023-05-10T00:55:18;62.90;;;19.30;;
74124;SDS011;62475;52.192;5.396;2023-05-10T00:57:44;62.97;;;17.95;;
74124;SDS011;62475;52.192;5.396;2023-05-10T01:00:10;51.38;;;17.73;;
74124;SDS011;62475;52.192;5.396;2023-05-10T01:02:36;66.80;;;19.08;;
74124;SDS011;62475;52.192;5.396;2023-05-10T01:05:01;68.10;;;18.63;;
74124;SDS011;62475;52.192;5.396;2023-05-10T01:07:30;65.55;;;18.15;;
74124;SDS011;62475;52.192;5.396;2023-05-10T01:09:56;65.50;;;19.73;;
74124;SDS011;62475;52.192;5.396;2023-05-10T01:12:21;89.70;;;22.98;;
74124;SDS011;62475;52.192;5.396;2023-05-10T01:14:47;65.85;;;20.52;;
74124;SDS011;62475;52.192;5.396;2023-05-10T01:17:13;86.40;;;22.75;;
74124;SDS011;62475;52.192;5.396;2023-05-10T01:19:39;100.68;;;26.58;;
74124;SDS011;62475;52.192;5.396;2023-05-10T01:28:03;91.03;;;26.65;;
74124;SDS011;62475;52.192;5.396;2023-05-10T01:36:35;101.47;;;28.50;;
74124;SDS011;62475;52.192;5.396;2023-05-10T01:41:45;108.18;;;28.52;;
74124;SDS011;62475;52.192;5.396;2023-05-10T01:47:15;105.63;;;28.65;;
74124;SDS011;62475;52.192;5.396;2023-05-10T01:49:49;117.90;;;29.45;;
74124;SDS011;62475;52.192;5.396;2023-05-10T01:52:18;85.57;;;25.30;;
74124;SDS011;62475;52.192;5.396;2023-05-10T01:54:55;114.00;;;28.70;;
74124;SDS011;62475;52.192;5.396;2023-05-10T01:57:25;101.65;;;28.58;;
74124;SDS011;62475;52.192;5.396;2023-05-10T01:59:53;89.72;;;26.27;;
74124;SDS011;62475;52.192;5.396;2023-05-10T02:02:20;97.28;;;27.80;;
74124;SDS011;62475;52.192;5.396;2023-05-10T02:04:46;89.72;;;28.55;;
74124;SDS011;62475;52.192;5.396;2023-05-10T02:07:14;89.95;;;26.33;;
74124;SDS011;62475;52.192;5.396;2023-05-10T02:09:41;101.60;;;29.40;;
74124;SDS011;62475;52.192;5.396;2023-05-10T02:12:12;107.13;;;29.00;;
74124;SDS011;62475;52.192;5.396;2023-05-10T02:14:38;116.53;;;28.08;;
74124;SDS011;62475;52.192;5.396;2023-05-10T02:17:06;96.15;;;27.33;;
74124;SDS011;62475;52.192;5.396;2023-05-10T02:19:34;99.55;;;28.10;;
74124;SDS011;62475;52.192;5.396;2023-05-10T02:22:04;106.75;;;25.73;;
74124;SDS011;62475;52.192;5.396;2023-05-10T02:24:30;94.68;;;27.27;;
74124;SDS011;62475;52.192;5.396;2023-05-10T02:26:58;94.18;;;26.45;;
74124;SDS011;62475;52.192;5.396;2023-05-10T02:29:25;109.35;;;28.02;;
74124;SDS011;62475;52.192;5.396;2023-05-10T02:31:53;110.50;;;27.73;;
74124;SDS011;62475;52.192;5.396;2023-05-10T02:34:21;120.78;;;30.13;;
74124;SDS011;62475;52.192;5.396;2023-05-10T02:36:47;102.53;;;27.48;;
74124;SDS011;62475;52.192;5.396;2023-05-10T02:39:13;125.95;;;27.40;;
74124;SDS011;62475;52.192;5.396;2023-05-10T02:41:40;126.82;;;31.05;;
74124;SDS011;62475;52.192;5.396;2023-05-10T02:44:07;114.88;;;30.63;;
74124;SDS011;62475;52.192;5.396;2023-05-10T02:46:34;104.95;;;26.90;;
74124;SDS011;62475;52.192;5.396;2023-05-10T02:49:00;111.57;;;27.95;;
74124;SDS011;62475;52.192;5.396;2023-05-10T02:51:26;118.72;;;29.42;;
74124;SDS011;62475;52.192;5.396;2023-05-10T02:53:56;120.38;;;28.00;;
74124;SDS011;62475;52.192;5.396;2023-05-10T02:56:28;120.55;;;28.40;;
74124;SDS011;62475;52.192;5.396;2023-05-10T02:58:58;123.57;;;29.38;;
74124;SDS011;62475;52.192;5.396;2023-05-10T03:01:23;125.95;;;28.52;;
74124;SDS011;62475;52.192;5.396;2023-05-10T03:03:49;136.65;;;30.77;;
74124;SDS011;62475;52.192;5.396;2023-05-10T03:06:14;124.97;;;27.83;;
74124;SDS011;62475;52.192;5.396;2023-05-10T03:08:41;139.07;;;28.48;;
74124;SDS011;62475;52.192;5.396;2023-05-10T03:11:14;148.73;;;30.77;;
74124;SDS011;62475;52.192;5.396;2023-05-10T03:16:19;118.60;;;27.50;;
74124;SDS011;62475;52.192;5.396;2023-05-10T03:18:54;151.75;;;30.52;;
74124;SDS011;62475;52.192;5.396;2023-05-10T03:21:25;143.05;;;31.17;;
74124;SDS011;62475;52.192;5.396;2023-05-10T03:26:31;136.82;;;29.35;;
74124;SDS011;62475;52.192;5.396;2023-05-10T03:28:57;131.45;;;30.65;;
74124;SDS011;62475;52.192;5.396;2023-05-10T03:31:24;134.68;;;30.15;;
74124;SDS011;62475;52.192;5.396;2023-05-10T03:33:50;150.75;;;30.20;;
74124;SDS011;62475;52.192;5.396;2023-05-10T03:36:16;168.10;;;30.63;;
74124;SDS011;62475;52.192;5.396;2023-05-10T03:38:41;173.50;;;31.77;;
74124;SDS011;62475;52.192;5.396;2023-05-10T03:41:07;152.63;;;29.38;;
74124;SDS011;62475;52.192;5.396;2023-05-10T03:43:32;188.13;;;31.67;;
74124;SDS011;62475;52.192;5.396;2023-05-10T03:45:57;161.43;;;31.53;;
74124;SDS011;62475;52.192;5.396;2023-05-10T03:48:22;158.50;;;30.65;;
74124;SDS011;62475;52.192;5.396;2023-05-10T03:50:48;153.18;;;31.13;;
74124;SDS011;62475;52.192;5.396;2023-05-10T03:53:14;179.00;;;34.20;;
74124;SDS011;62475;52.192;5.396;2023-05-10T03:55:41;173.13;;;34.53;;
74124;SDS011;62475;52.192;5.396;2023-05-10T03:58:06;170.88;;;33.60;;
74124;SDS011;62475;52.192;5.396;2023-05-10T04:00:31;166.27;;;33.80;;
74124;SDS011;62475;52.192;5.396;2023-05-10T04:02:57;173.50;;;36.08;;
74124;SDS011;62475;52.192;5.396;2023-05-10T04:05:23;189.02;;;34.85;;
74124;SDS011;62475;52.192;5.396;2023-05-10T04:07:48;206.25;;;37.17;;
74124;SDS011;62475;52.192;5.396;2023-05-10T04:10:14;191.55;;;37.72;;
74124;SDS011;62475;52.192;5.396;2023-05-10T04:12:41;172.00;;;35.30;;
74124;SDS011;62475;52.192;5.396;2023-05-10T04:15:06;168.98;;;35.40;;
74124;SDS011;62475;52.192;5.396;2023-05-10T04:17:32;183.85;;;36.78;;
74124;SDS011;62475;52.192;5.396;2023-05-10T04:19:58;177.02;;;33.97;;
74124;SDS011;62475;52.192;5.396;2023-05-10T04:22:23;196.97;;;36.77;;
74124;SDS011;62475;52.192;5.396;2023-05-10T04:24:48;178.70;;;35.33;;
74124;SDS011;62475;52.192;5.396;2023-05-10T04:27:13;177.02;;;37.28;;
74124;SDS011;62475;52.192;5.396;2023-05-10T04:29:39;216.93;;;39.00;;
74124;SDS011;62475;52.192;5.396;2023-05-10T04:32:04;204.57;;;38.67;;
74124;SDS011;62475;52.192;5.396;2023-05-10T04:34:30;184.25;;;39.30;;
74124;SDS011;62475;52.192;5.396;2023-05-10T04:36:59;173.50;;;37.25;;
74124;SDS011;62475;52.192;5.396;2023-05-10T04:39:24;162.60;;;39.05;;
74124;SDS011;62475;52.192;5.396;2023-05-10T04:41:49;155.55;;;38.70;;
74124;SDS011;62475;52.192;5.396;2023-05-10T04:44:15;159.32;;;40.78;;
74124;SDS011;62475;52.192;5.396;2023-05-10T04:46:40;137.95;;;39.17;;
74124;SDS011;62475;52.192;5.396;2023-05-10T04:49:05;155.65;;;40.10;;
74124;SDS011;62475;52.192;5.396;2023-05-10T04:51:31;173.15;;;41.08;;
74124;SDS011;62475;52.192;5.396;2023-05-10T04:53:57;165.65;;;40.33;;
74124;SDS011;62475;52.192;5.396;2023-05-10T04:56:22;170.73;;;41.85;;
74124;SDS011;62475;52.192;5.396;2023-05-10T04:58:51;175.98;;;43.17;;
74124;SDS011;62475;52.192;5.396;2023-05-10T05:01:16;169.20;;;44.00;;
74124;SDS011;62475;52.192;5.396;2023-05-10T05:03:42;169.75;;;40.15;;
74124;SDS011;62475;52.192;5.396;2023-05-10T05:06:07;180.82;;;43.67;;
74124;SDS011;62475;52.192;5.396;2023-05-10T05:08:32;155.35;;;38.50;;
74124;SDS011;62475;52.192;5.396;2023-05-10T05:10:58;157.27;;;40.65;;
74124;SDS011;62475;52.192;5.396;2023-05-10T05:13:24;138.27;;;36.78;;
74124;SDS011;62475;52.192;5.396;2023-05-10T05:15:49;153.93;;;37.45;;
74124;SDS011;62475;52.192;5.396;2023-05-10T05:18:14;141.67;;;36.77;;
74124;SDS011;62475;52.192;5.396;2023-05-10T05:20:40;148.80;;;34.60;;
74124;SDS011;62475;52.192;5.396;2023-05-10T05:23:05;114.05;;;31.95;;
74124;SDS011;62475;52.192;5.396;2023-05-10T05:25:30;115.00;;;30.33;;
74124;SDS011;62475;52.192;5.396;2023-05-10T05:27:56;126.05;;;32.60;;
74124;SDS011;62475;52.192;5.396;2023-05-10T05:30:21;118.13;;;33.42;;
74124;SDS011;62475;52.192;5.396;2023-05-10T05:32:46;137.98;;;35.28;;
74124;SDS011;62475;52.192;5.396;2023-05-10T05:35:12;123.57;;;34.65;;
74124;SDS011;62475;52.192;5.396;2023-05-10T05:37:38;138.70;;;34.97;;
74124;SDS011;62475;52.192;5.396;2023-05-10T05:40:04;134.50;;;35.13;;
74124;SDS011;62475;52.192;5.396;2023-05-10T05:42:30;119.97;;;31.60;;
74124;SDS011;62475;52.192;5.396;2023-05-10T05:44:56;116.30;;;32.20;;
74124;SDS011;62475;52.192;5.396;2023-05-10T05:47:22;119.07;;;33.17;;
74124;SDS011;62475;52.192;5.396;2023-05-10T05:49:48;120.32;;;31.50;;
74124;SDS011;62475;52.192;5.396;2023-05-10T05:52:13;129.07;;;35.22;;
74124;SDS011;62475;52.192;5.396;2023-05-10T05:54:38;122.50;;;31.15;;
74124;SDS011;62475;52.192;5.396;2023-05-10T05:57:04;137.27;;;33.65;;
74124;SDS011;62475;52.192;5.396;2023-05-10T05:59:29;139.55;;;31.67;;
74124;SDS011;62475;52.192;5.396;2023-05-10T06:01:54;138.60;;;33.03;;
74124;SDS011;62475;52.192;5.396;2023-05-10T06:04:20;151.10;;;35.88;;
74124;SDS011;62475;52.192;5.396;2023-05-10T06:06:45;120.70;;;31.83;;
74124;SDS011;62475;52.192;5.396;2023-05-10T06:09:11;126.05;;;30.55;;
74124;SDS011;62475;52.192;5.396;2023-05-10T06:11:36;105.38;;;27.80;;
74124;SDS011;62475;52.192;5.396;2023-05-10T06:14:02;106.60;;;26.52;;
74124;SDS011;62475;52.192;5.396;2023-05-10T06:16:32;98.22;;;26.58;;
74124;SDS011;62475;52.192;5.396;2023-05-10T06:18:58;80.97;;;24.73;;
74124;SDS011;62475;52.192;5.396;2023-05-10T06:21:24;90.17;;;24.03;;
74124;SDS011;62475;52.192;5.396;2023-05-10T06:23:50;72.82;;;22.95;;
74124;SDS011;62475;52.192;5.396;2023-05-10T06:26:15;71.10;;;21.02;;
74124;SDS011;62475;52.192;5.396;2023-05-10T06:28:41;61.78;;;20.58;;
74124;SDS011;62475;52.192;5.396;2023-05-10T06:31:06;60.22;;;19.27;;
74124;SDS011;62475;52.192;5.396;2023-05-10T06:33:32;60.38;;;19.73;;
74124;SDS011;62475;52.192;5.396;2023-05-10T06:35:58;65.40;;;20.33;;
74124;SDS011;62475;52.192;5.396;2023-05-10T06:38:23;60.90;;;19.70;;
74124;SDS011;62475;52.192;5.396;2023-05-10T06:40:49;65.00;;;19.27;;
74124;SDS011;62475;52.192;5.396;2023-05-10T06:43:14;58.45;;;19.50;;
74124;SDS011;62475;52.192;5.396;2023-05-10T06:45:41;55.80;;;17.30;;
74124;SDS011;62475;52.192;5.396;2023-05-10T06:48:06;57.10;;;17.20;;
74124;SDS011;62475;52.192;5.396;2023-05-10T06:50:32;55.45;;;18.20;;
74124;SDS011;62475;52.192;5.396;2023-05-10T06:52:58;51.92;;;17.67;;
74124;SDS011;62475;52.192;5.396;2023-05-10T06:55:23;51.72;;;17.98;;
74124;SDS011;62475;52.192;5.396;2023-05-10T06:57:48;58.83;;;17.73;;
74124;SDS011;62475;52.192;5.396;2023-05-10T07:00:15;52.65;;;18.35;;
74124;SDS011;62475;52.192;5.396;2023-05-10T07:02:41;50.35;;;17.08;;
74124;SDS011;62475;52.192;5.396;2023-05-10T07:05:06;47.40;;;15.20;;
74124;SDS011;62475;52.192;5.396;2023-05-10T07:07:32;49.65;;;15.65;;
74124;SDS011;62475;52.192;5.396;2023-05-10T07:09:57;47.33;;;16.30;;
74124;SDS011;62475;52.192;5.396;2023-05-10T07:12:23;53.75;;;16.15;;
74124;SDS011;62475;52.192;5.396;2023-05-10T07:14:49;45.30;;;15.60;;
74124;SDS011;62475;52.192;5.396;2023-05-10T07:17:14;47.83;;;15.90;;
74124;SDS011;62475;52.192;5.396;2023-05-10T07:19:40;33.92;;;13.70;;
74124;SDS011;62475;52.192;5.396;2023-05-10T07:22:05;43.33;;;15.48;;
74124;SDS011;62475;52.192;5.396;2023-05-10T07:24:31;43.28;;;14.30;;
74124;SDS011;62475;52.192;5.396;2023-05-10T07:26:58;40.20;;;14.45;;
74124;SDS011;62475;52.192;5.396;2023-05-10T07:29:23;36.50;;;14.13;;
74124;SDS011;62475;52.192;5.396;2023-05-10T07:31:48;43.13;;;15.48;;
74124;SDS011;62475;52.192;5.396;2023-05-10T07:34:13;39.87;;;15.47;;
74124;SDS011;62475;52.192;5.396;2023-05-10T07:36:39;33.42;;;13.40;;
74124;SDS011;62475;52.192;5.396;2023-05-10T07:39:04;36.90;;;14.65;;
74124;SDS011;62475;52.192;5.396;2023-05-10T07:41:30;38.40;;;14.45;;
74124;SDS011;62475;52.192;5.396;2023-05-10T07:43:55;34.50;;;13.18;;
74124;SDS011;62475;52.192;5.396;2023-05-10T07:46:20;33.58;;;14.13;;
74124;SDS011;62475;52.192;5.396;2023-05-10T07:48:46;36.58;;;13.15;;
74124;SDS011;62475;52.192;5.396;2023-05-10T07:51:11;34.22;;;13.07;;
74124;SDS011;62475;52.192;5.396;2023-05-10T07:53:37;32.63;;;12.13;;
74124;SDS011;62475;52.192;5.396;2023-05-10T07:58:46;33.05;;;12.50;;
74124;SDS011;62475;52.192;5.396;2023-05-10T08:01:12;32.45;;;11.98;;
74124;SDS011;62475;52.192;5.396;2023-05-10T08:03:37;28.35;;;11.45;;
74124;SDS011;62475;52.192;5.396;2023-05-10T08:06:02;25.63;;;10.05;;
74124;SDS011;62475;52.192;5.396;2023-05-10T08:08:28;25.40;;;11.77;;
74124;SDS011;62475;52.192;5.396;2023-05-10T08:10:53;26.15;;;11.52;;
74124;SDS011;62475;52.192;5.396;2023-05-10T08:13:18;29.05;;;12.45;;
74124;SDS011;62475;52.192;5.396;2023-05-10T08:15:44;29.27;;;12.73;;
74124;SDS011;62475;52.192;5.396;2023-05-10T08:18:09;27.40;;;10.70;;
74124;SDS011;62475;52.192;5.396;2023-05-10T08:20:35;31.08;;;12.55;;
74124;SDS011;62475;52.192;5.396;2023-05-10T08:23:00;21.67;;;10.38;;
74124;SDS011;62475;52.192;5.396;2023-05-10T08:25:25;22.77;;;10.00;;
74124;SDS011;62475;52.192;5.396;2023-05-10T08:27:51;21.08;;;9.00;;
74124;SDS011;62475;52.192;5.396;2023-05-10T08:30:16;22.17;;;9.88;;
74124;SDS011;62475;52.192;5.396;2023-05-10T08:32:42;17.77;;;7.78;;
74124;SDS011;62475;52.192;5.396;2023-05-10T08:35:07;20.42;;;7.75;;
74124;SDS011;62475;52.192;5.396;2023-05-10T08:37:32;22.17;;;9.43;;
74124;SDS011;62475;52.192;5.396;2023-05-10T08:39:58;18.83;;;8.43;;
74124;SDS011;62475;52.192;5.396;2023-05-10T08:42:23;22.42;;;8.32;;
74124;SDS011;62475;52.192;5.396;2023-05-10T08:44:53;22.58;;;9.93;;
74124;SDS011;62475;52.192;5.396;2023-05-10T08:47:20;20.75;;;8.82;;
74124;SDS011;62475;52.192;5.396;2023-05-10T08:49:47;21.90;;;9.73;;
74124;SDS011;62475;52.192;5.396;2023-05-10T08:52:16;22.05;;;10.52;;
74124;SDS011;62475;52.192;5.396;2023-05-10T08:54:42;24.08;;;9.27;;
74124;SDS011;62475;52.192;5.396;2023-05-10T08:57:10;20.42;;;8.27;;
74124;SDS011;62475;52.192;5.396;2023-05-10T08:59:35;20.40;;;9.15;;
74124;SDS011;62475;52.192;5.396;2023-05-10T09:02:04;21.25;;;10.65;;
74124;SDS011;62475;52.192;5.396;2023-05-10T09:04:30;21.15;;;10.43;;
74124;SDS011;62475;52.192;5.396;2023-05-10T09:06:56;17.00;;;8.50;;
74124;SDS011;62475;52.192;5.396;2023-05-10T09:09:21;18.02;;;8.50;;
74124;SDS011;62475;52.192;5.396;2023-05-10T09:11:48;15.02;;;7.30;;
74124;SDS011;62475;52.192;5.396;2023-05-10T09:14:14;13.88;;;6.57;;
74124;SDS011;62475;52.192;5.396;2023-05-10T09:16:40;15.27;;;6.20;;
74124;SDS011;62475;52.192;5.396;2023-05-10T09:19:06;8.70;;;4.60;;
74124;SDS011;62475;52.192;5.396;2023-05-10T09:21:33;13.77;;;5.43;;
74124;SDS011;62475;52.192;5.396;2023-05-10T09:24:05;11.05;;;5.78;;
74124;SDS011;62475;52.192;5.396;2023-05-10T09:26:31;11.88;;;5.43;;
74124;SDS011;62475;52.192;5.396;2023-05-10T09:28:58;13.63;;;5.85;;
74124;SDS011;62475;52.192;5.396;2023-05-10T09:31:24;9.90;;;4.95;;
74124;SDS011;62475;52.192;5.396;2023-05-10T09:33:52;8.70;;;4.85;;
74124;SDS011;62475;52.192;5.396;2023-05-10T09:36:18;10.55;;;4.93;;
74124;SDS011;62475;52.192;5.396;2023-05-10T09:38:50;9.75;;;4.72;;
74124;SDS011;62475;52.192;5.396;2023-05-10T09:41:23;9.15;;;4.30;;
74124;SDS011;62475;52.192;5.396;2023-05-10T09:43:50;8.20;;;3.92;;
74124;SDS011;62475;52.192;5.396;2023-05-10T09:46:22;7.53;;;3.85;;
74124;SDS011;62475;52.192;5.396;2023-05-10T09:48:47;6.88;;;3.20;;
74124;SDS011;62475;52.192;5.396;2023-05-10T09:51:22;8.20;;;3.88;;
74124;SDS011;62475;52.192;5.396;2023-05-10T09:53:54;6.18;;;3.45;;
74124;SDS011;62475;52.192;5.396;2023-05-10T09:56:35;6.40;;;3.65;;
74124;SDS011;62475;52.192;5.396;2023-05-10T09:59:02;6.75;;;3.35;;
74124;SDS011;62475;52.192;5.396;2023-05-10T10:01:28;6.25;;;3.45;;
74124;SDS011;62475;52.192;5.396;2023-05-10T10:03:57;9.52;;;3.97;;
74124;SDS011;62475;52.192;5.396;2023-05-10T10:06:24;9.95;;;3.95;;
74124;SDS011;62475;52.192;5.396;2023-05-10T10:08:50;6.18;;;3.40;;
74124;SDS011;62475;52.192;5.396;2023-05-10T10:11:16;11.35;;;4.30;;
74124;SDS011;62475;52.192;5.396;2023-05-10T10:13:41;12.68;;;4.32;;
74124;SDS011;62475;52.192;5.396;2023-05-10T10:16:08;6.40;;;4.20;;
74124;SDS011;62475;52.192;5.396;2023-05-10T10:18:34;6.90;;;4.30;;
74124;SDS011;62475;52.192;5.396;2023-05-10T10:21:04;9.60;;;4.80;;
74124;SDS011;62475;52.192;5.396;2023-05-10T10:23:31;10.50;;;5.60;;
74124;SDS011;62475;52.192;5.396;2023-05-10T10:25:57;11.07;;;5.47;;
74124;SDS011;62475;52.192;5.396;2023-05-10T10:28:38;10.43;;;5.38;;
74124;SDS011;62475;52.192;5.396;2023-05-10T10:34:27;11.68;;;5.75;;
74124;SDS011;62475;52.192;5.396;2023-05-10T10:36:54;8.00;;;4.25;;
74124;SDS011;62475;52.192;5.396;2023-05-10T10:39:21;8.77;;;4.53;;
74124;SDS011;62475;52.192;5.396;2023-05-10T10:41:51;9.95;;;5.25;;
74124;SDS011;62475;52.192;5.396;2023-05-10T10:52:15;10.02;;;5.22;;
74124;SDS011;62475;52.192;5.396;2023-05-10T10:55:18;9.52;;;5.10;;
74124;SDS011;62475;52.192;5.396;2023-05-10T10:57:48;7.45;;;4.70;;
74124;SDS011;62475;52.192;5.396;2023-05-10T11:00:38;9.88;;;4.78;;
74124;SDS011;62475;52.192;5.396;2023-05-10T11:03:06;8.20;;;4.53;;
74124;SDS011;62475;52.192;5.396;2023-05-10T11:10:40;9.77;;;4.65;;
74124;SDS011;62475;52.192;5.396;2023-05-10T11:13:13;9.63;;;4.55;;
74124;SDS011;62475;52.192;5.396;2023-05-10T11:15:43;7.68;;;4.15;;
74124;SDS011;62475;52.192;5.396;2023-05-10T11:18:20;10.55;;;5.22;;
74124;SDS011;62475;52.192;5.396;2023-05-10T11:20:51;7.65;;;3.90;;
74124;SDS011;62475;52.192;5.396;2023-05-10T11:23:20;9.23;;;4.75;;
74124;SDS011;62475;52.192;5.396;2023-05-10T11:25:46;8.82;;;4.97;;
74124;SDS011;62475;52.192;5.396;2023-05-10T11:28:13;8.65;;;4.28;;
74124;SDS011;62475;52.192;5.396;2023-05-10T11:30:40;11.13;;;4.68;;
74124;SDS011;62475;52.192;5.396;2023-05-10T11:33:07;10.45;;;5.00;;
74124;SDS011;62475;52.192;5.396;2023-05-10T11:35:39;7.22;;;4.18;;
74124;SDS011;62475;52.192;5.396;2023-05-10T11:38:06;8.68;;;4.63;;
74124;SDS011;62475;52.192;5.396;2023-05-10T11:40:32;10.27;;;4.55;;
74124;SDS011;62475;52.192;5.396;2023-05-10T11:42:57;7.60;;;4.40;;
74124;SDS011;62475;52.192;5.396;2023-05-10T11:45:24;9.50;;;4.50;;
74124;SDS011;62475;52.192;5.396;2023-05-10T11:47:49;10.40;;;4.30;;
74124;SDS011;62475;52.192;5.396;2023-05-10T11:50:15;9.10;;;4.78;;
74124;SDS011;62475;52.192;5.396;2023-05-10T11:52:41;7.40;;;3.88;;
74124;SDS011;62475;52.192;5.396;2023-05-10T11:55:07;8.43;;;4.43;;
74124;SDS011;62475;52.192;5.396;2023-05-10T11:57:32;10.30;;;4.63;;
74124;SDS011;62475;52.192;5.396;2023-05-10T11:59:57;6.32;;;3.15;;
74124;SDS011;62475;52.192;5.396;2023-05-10T12:02:23;5.82;;;3.47;;
74124;SDS011;62475;52.192;5.396;2023-05-10T12:04:49;6.80;;;3.83;;
74124;SDS011;62475;52.192;5.396;2023-05-10T12:07:15;4.93;;;2.90;;
74124;SDS011;62475;52.192;5.396;2023-05-10T12:09:44;5.88;;;3.13;;
74124;SDS011;62475;52.192;5.396;2023-05-10T12:12:10;5.80;;;3.17;;
74124;SDS011;62475;52.192;5.396;2023-05-10T12:14:40;6.22;;;3.50;;
74124;SDS011;62475;52.192;5.396;2023-05-10T12:17:06;6.90;;;3.20;;
74124;SDS011;62475;52.192;5.396;2023-05-10T12:19:37;5.75;;;2.97;;
74124;SDS011;62475;52.192;5.396;2023-05-10T12:22:04;6.75;;;3.03;;
74124;SDS011;62475;52.192;5.396;2023-05-10T12:24:30;4.82;;;3.05;;
74124;SDS011;62475;52.192;5.396;2023-05-10T12:26:55;7.05;;;4.13;;
74124;SDS011;62475;52.192;5.396;2023-05-10T12:29:21;6.95;;;3.67;;
74124;SDS011;62475;52.192;5.396;2023-05-10T12:31:56;5.45;;;3.22;;
74124;SDS011;62475;52.192;5.396;2023-05-10T12:34:44;5.57;;;3.22;;
74124;SDS011;62475;52.192;5.396;2023-05-10T12:37:11;4.28;;;2.65;;
74124;SDS011;62475;52.192;5.396;2023-05-10T12:39:40;5.40;;;1.95;;
74124;SDS011;62475;52.192;5.396;2023-05-10T12:42:07;4.22;;;2.00;;
74124;SDS011;62475;52.192;5.396;2023-05-10T12:44:32;2.63;;;1.80;;
74124;SDS011;62475;52.192;5.396;2023-05-10T12:46:57;4.20;;;1.55;;
74124;SDS011;62475;52.192;5.396;2023-05-10T12:49:23;3.17;;;2.00;;
74124;SDS011;62475;52.192;5.396;2023-05-10T12:51:48;4.10;;;1.70;;
74124;SDS011;62475;52.192;5.396;2023-05-10T12:54:13;2.95;;;1.63;;
74124;SDS011;62475;52.192;5.396;2023-05-10T12:56:39;3.65;;;2.13;;
74124;SDS011;62475;52.192;5.396;2023-05-10T12:59:05;5.80;;;2.03;;
74124;SDS011;62475;52.192;5.396;2023-05-10T13:01:31;4.93;;;1.85;;
74124;SDS011;62475;52.192;5.396;2023-05-10T13:03:56;5.57;;;2.40;;
74124;SDS011;62475;52.192;5.396;2023-05-10T13:06:22;3.72;;;1.80;;
74124;SDS011;62475;52.192;5.396;2023-05-10T13:08:48;6.55;;;2.25;;
74124;SDS011;62475;52.192;5.396;2023-05-10T13:11:13;3.83;;;1.98;;
74124;SDS011;62475;52.192;5.396;2023-05-10T13:13:41;3.00;;;1.83;;
74124;SDS011;62475;52.192;5.396;2023-05-10T13:16:07;3.22;;;1.92;;
74124;SDS011;62475;52.192;5.396;2023-05-10T13:18:32;4.70;;;2.03;;
74124;SDS011;62475;52.192;5.396;2023-05-10T13:20:57;5.40;;;2.40;;
74124;SDS011;62475;52.192;5.396;2023-05-10T13:23:23;3.67;;;1.98;;
74124;SDS011;62475;52.192;5.396;2023-05-10T13:25:48;4.28;;;2.50;;
74124;SDS011;62475;52.192;5.396;2023-05-10T13:28:13;5.43;;;2.25;;
74124;SDS011;62475;52.192;5.396;2023-05-10T13:30:39;3.92;;;2.10;;
74124;SDS011;62475;52.192;5.396;2023-05-10T13:33:04;9.65;;;4.50;;
74124;SDS011;62475;52.192;5.396;2023-05-10T13:35:30;13.20;;;5.78;;
74124;SDS011;62475;52.192;5.396;2023-05-10T13:37:55;15.30;;;6.72;;
74124;SDS011;62475;52.192;5.396;2023-05-10T13:40:22;13.25;;;5.88;;
74124;SDS011;62475;52.192;5.396;2023-05-10T13:42:47;12.10;;;5.75;;
74124;SDS011;62475;52.192;5.396;2023-05-10T13:45:13;12.63;;;6.40;;
74124;SDS011;62475;52.192;5.396;2023-05-10T13:47:38;15.57;;;6.47;;
74124;SDS011;62475;52.192;5.396;2023-05-10T13:50:04;13.60;;;5.97;;
74124;SDS011;62475;52.192;5.396;2023-05-10T13:52:29;14.93;;;5.95;;
74124;SDS011;62475;52.192;5.396;2023-05-10T13:54:55;15.75;;;6.70;;
74124;SDS011;62475;52.192;5.396;2023-05-10T13:57:20;21.10;;;7.57;;
74124;SDS011;62475;52.192;5.396;2023-05-10T13:59:46;15.52;;;6.78;;
74124;SDS011;62475;52.192;5.396;2023-05-10T14:02:11;16.63;;;7.53;;
74124;SDS011;62475;52.192;5.396;2023-05-10T14:04:38;13.48;;;6.47;;
74124;SDS011;62475;52.192;5.396;2023-05-10T14:07:03;19.90;;;7.50;;
74124;SDS011;62475;52.192;5.396;2023-05-10T14:09:29;15.05;;;7.05;;
74124;SDS011;62475;52.192;5.396;2023-05-10T14:11:56;14.05;;;5.57;;
74124;SDS011;62475;52.192;5.396;2023-05-10T14:14:22;17.50;;;7.10;;
74124;SDS011;62475;52.192;5.396;2023-05-10T14:16:48;16.65;;;7.05;;
74124;SDS011;62475;52.192;5.396;2023-05-10T14:19:13;15.52;;;6.70;;
74124;SDS011;62475;52.192;5.396;2023-05-10T14:21:39;15.77;;;5.70;;
74124;SDS011;62475;52.192;5.396;2023-05-10T14:24:06;15.55;;;7.00;;
74124;SDS011;62475;52.192;5.396;2023-05-10T14:26:32;12.90;;;6.38;;
74124;SDS011;62475;52.192;5.396;2023-05-10T14:28:58;15.70;;;7.00;;
74124;SDS011;62475;52.192;5.396;2023-05-10T14:31:23;15.30;;;7.10;;
74124;SDS011;62475;52.192;5.396;2023-05-10T14:33:50;14.68;;;7.18;;
74124;SDS011;62475;52.192;5.396;2023-05-10T14:36:15;17.65;;;6.88;;
74124;SDS011;62475;52.192;5.396;2023-05-10T14:38:41;16.23;;;6.90;;
74124;SDS011;62475;52.192;5.396;2023-05-10T14:41:07;15.50;;;6.95;;
74124;SDS011;62475;52.192;5.396;2023-05-10T14:43:32;13.65;;;6.38;;
74124;SDS011;62475;52.192;5.396;2023-05-10T14:45:58;17.17;;;7.25;;
74124;SDS011;62475;52.192;5.396;2023-05-10T14:48:23;18.95;;;7.80;;
74124;SDS011;62475;52.192;5.396;2023-05-10T14:50:48;17.08;;;7.25;;
74124;SDS011;62475;52.192;5.396;2023-05-10T14:53:14;20.88;;;8.75;;
74124;SDS011;62475;52.192;5.396;2023-05-10T14:55:40;15.40;;;7.45;;
74124;SDS011;62475;52.192;5.396;2023-05-10T14:58:05;16.25;;;7.95;;
74124;SDS011;62475;52.192;5.396;2023-05-10T15:00:31;22.05;;;8.57;;
74124;SDS011;62475;52.192;5.396;2023-05-10T15:02:56;21.75;;;7.68;;
74124;SDS011;62475;52.192;5.396;2023-05-10T15:05:22;18.75;;;8.90;;